createdAt,value
2019-01-19T00:00:40.511Z,9.47
2019-01-19T00:03:49.981Z,9.23
2019-01-19T00:07:00.836Z,11.23
2019-01-19T00:10:29.378Z,11.13
2019-01-19T00:13:38.860Z,11.77
2019-01-19T00:16:49.768Z,12.17
2019-01-19T00:20:00.649Z,10.50
2019-01-19T00:23:11.460Z,11.67
2019-01-19T00:26:20.936Z,11.33
2019-01-19T00:29:31.772Z,12.97
2019-01-19T00:32:42.576Z,11.70
2019-01-19T00:35:52.091Z,12.83
2019-01-19T00:39:02.952Z,14.13
2019-01-19T00:42:12.460Z,12.80
2019-01-19T00:45:23.283Z,11.90
2019-01-19T00:48:32.777Z,14.40
2019-01-19T00:51:43.637Z,14.13
2019-01-19T00:54:54.532Z,13.73
2019-01-19T00:58:05.368Z,14.83
2019-01-19T01:01:16.183Z,15.00
2019-01-19T01:04:25.774Z,14.13
2019-01-19T01:07:35.301Z,14.33
2019-01-19T01:10:46.166Z,14.87
2019-01-19T01:13:55.664Z,15.07
2019-01-19T01:17:06.526Z,15.33
2019-01-19T01:20:17.350Z,14.07
2019-01-19T01:23:26.858Z,14.97
2019-01-19T01:26:37.734Z,12.53
2019-01-19T01:29:47.239Z,12.30
2019-01-19T01:32:58.135Z,12.47
2019-01-19T01:36:07.702Z,12.83
2019-01-19T01:39:17.232Z,11.60
2019-01-19T01:42:26.707Z,11.70
2019-01-19T01:45:36.221Z,11.13
2019-01-19T01:48:47.139Z,13.90
2019-01-19T01:52:15.792Z,12.83
2019-01-19T01:55:26.598Z,12.80
2019-01-19T01:58:37.374Z,12.53
2019-01-19T02:02:06.294Z,12.90
2019-01-19T02:05:15.806Z,12.77
2019-01-19T02:08:26.683Z,12.17
2019-01-19T02:11:37.527Z,10.57
2019-01-19T02:14:47.028Z,9.00
2019-01-19T02:17:56.542Z,9.20
2019-01-19T02:21:07.432Z,9.03
2019-01-19T02:24:18.275Z,7.03
2019-01-19T02:27:27.787Z,7.83
2019-01-19T02:30:38.589Z,6.93
2019-01-19T02:33:48.062Z,6.93
2019-01-19T02:37:17.996Z,6.70
2019-01-19T02:40:28.849Z,7.93
2019-01-19T02:43:38.391Z,6.10
2019-01-19T02:46:47.900Z,7.80
2019-01-19T02:49:57.680Z,7.93
2019-01-19T02:53:08.569Z,7.50
2019-01-19T02:56:18.047Z,11.53
2019-01-19T02:59:47.935Z,11.20
2019-01-19T03:02:58.815Z,12.10
2019-01-19T03:06:09.691Z,13.47
2019-01-19T03:09:39.687Z,11.57
2019-01-19T03:12:49.228Z,11.40
2019-01-19T03:16:00.119Z,12.77
2019-01-19T03:19:10.996Z,11.83
2019-01-19T03:22:20.514Z,11.90
2019-01-19T03:25:29.997Z,11.77
2019-01-19T03:28:40.839Z,11.90
2019-01-19T03:31:50.307Z,10.83
2019-01-19T03:34:59.807Z,11.30
2019-01-19T03:38:09.335Z,11.70
2019-01-19T03:41:20.138Z,11.43
2019-01-19T03:44:30.976Z,10.60
2019-01-19T03:47:41.872Z,10.13
2019-01-19T03:50:52.782Z,10.20
2019-01-19T03:54:02.328Z,10.13
2019-01-19T03:57:13.169Z,10.43
2019-01-19T04:00:24.000Z,9.37
2019-01-19T04:03:34.838Z,10.40
2019-01-19T04:06:44.314Z,11.13
2019-01-19T04:10:14.268Z,10.47
2019-01-19T04:13:23.800Z,11.13
2019-01-19T04:16:34.692Z,10.03
2019-01-19T04:20:04.650Z,10.30
2019-01-19T04:26:25.999Z,11.00
2019-01-19T04:32:07.730Z,10.60
2019-01-19T04:34:57.902Z,10.60
2019-01-19T04:37:48.125Z,10.90
2019-01-19T04:40:19.034Z,9.93
2019-01-19T04:46:06.288Z,9.60
2019-01-19T04:51:47.883Z,9.60
2019-01-19T04:54:18.923Z,8.97
2019-01-19T04:56:49.894Z,9.53
2019-01-19T04:59:20.789Z,9.63
2019-01-19T05:01:51.773Z,8.87
2019-01-19T05:04:22.716Z,9.47
2019-01-19T05:06:53.758Z,10.17
2019-01-19T05:12:58.858Z,9.77
2019-01-19T05:15:29.801Z,8.80
2019-01-19T05:18:01.060Z,8.13
2019-01-19T05:20:31.992Z,8.87
2019-01-19T05:23:03.054Z,10.27
2019-01-19T05:25:33.937Z,9.63
2019-01-19T05:28:05.021Z,9.07
2019-01-19T05:30:36.019Z,8.97
2019-01-19T05:33:06.932Z,7.63
2019-01-19T05:35:37.894Z,8.90
2019-01-19T05:38:08.873Z,10.07
2019-01-19T05:40:59.002Z,9.07
2019-01-19T05:43:30.004Z,9.43
2019-01-19T05:46:00.947Z,8.80
2019-01-19T05:48:31.949Z,9.93
2019-01-19T05:51:02.949Z,9.23
2019-01-19T05:53:53.154Z,9.13
2019-01-19T05:56:43.299Z,9.17
2019-01-19T05:59:33.431Z,8.97
2019-01-19T06:02:04.457Z,8.80
2019-01-19T06:04:54.775Z,8.47
2019-01-19T06:07:26.021Z,9.67
2019-01-19T06:09:57.092Z,9.43
2019-01-19T06:12:47.499Z,9.20
2019-01-19T06:15:37.454Z,9.90
2019-01-19T06:24:54.179Z,10.00
2019-01-19T06:27:44.484Z,9.27
2019-01-19T06:30:55.308Z,9.20
2019-01-19T06:33:26.311Z,9.40
2019-01-19T06:35:57.256Z,9.13
2019-01-19T06:39:06.350Z,8.43
2019-01-19T06:41:37.413Z,9.23
2019-01-19T06:44:27.606Z,9.73
2019-01-19T06:46:58.602Z,9.43
2019-01-19T06:49:48.935Z,9.87
2019-01-19T06:52:19.945Z,9.63
2019-01-19T06:55:30.700Z,9.10
2019-01-19T06:58:20.979Z,8.90
2019-01-19T07:01:11.090Z,8.80
2019-01-19T07:04:01.399Z,7.70
2019-01-19T07:07:10.698Z,7.77
2019-01-19T07:10:01.259Z,7.40
2019-01-19T07:13:11.725Z,7.37
2019-01-19T07:16:01.849Z,8.10
2019-01-19T07:22:25.883Z,9.33
2019-01-19T07:25:15.911Z,8.10
2019-01-19T07:27:46.862Z,9.07
2019-01-19T07:30:57.764Z,9.70
2019-01-19T07:33:48.058Z,9.57
2019-01-19T07:36:38.283Z,9.37
2019-01-19T07:39:47.576Z,10.30
2019-01-19T07:42:18.816Z,10.67
2019-01-19T07:44:49.825Z,10.80
2019-01-19T07:50:56.418Z,12.37
2019-01-19T07:56:36.495Z,14.03
2019-01-19T07:59:26.603Z,14.33
2019-01-19T08:02:16.995Z,12.67
2019-01-19T08:05:07.220Z,13.97
2019-01-19T08:07:38.136Z,14.30
2019-01-19T08:10:28.217Z,13.00
2019-01-19T08:13:18.390Z,12.17
2019-01-19T08:15:49.365Z,13.17
2019-01-19T08:18:20.337Z,15.30
2019-01-19T08:20:51.300Z,15.50
2019-01-19T08:23:22.275Z,13.53
2019-01-19T08:26:12.508Z,14.57
2019-01-19T08:28:43.494Z,12.20
2019-01-19T08:31:14.565Z,12.20
2019-01-19T08:34:33.881Z,10.80
2019-01-19T08:37:44.702Z,10.83
2019-01-19T08:40:56.270Z,10.83
2019-01-19T08:44:25.694Z,10.57
2019-01-19T08:46:56.624Z,9.43
2019-01-19T08:49:27.490Z,9.83
2019-01-19T08:55:48.826Z,9.83
2019-01-19T09:01:29.031Z,9.77
2019-01-19T09:04:19.249Z,8.43
2019-01-19T09:10:44.925Z,6.67
2019-01-19T09:13:35.180Z,5.37
2019-01-19T09:16:45.972Z,4.83
2019-01-19T09:25:32.809Z,4.17
2019-01-19T09:28:03.717Z,4.07
2019-01-19T09:30:34.796Z,4.30
2019-01-19T09:33:25.007Z,4.57
2019-01-19T09:39:10.488Z,4.07
2019-01-19T09:42:00.806Z,3.90
2019-01-19T09:44:44.236Z,3.67
2019-01-19T09:47:15.132Z,3.50
2019-01-19T09:50:45.075Z,3.00
2019-01-19T09:53:35.196Z,3.23
2019-01-19T09:56:06.242Z,7.07
2019-01-19T09:58:56.482Z,3.20
2019-01-19T10:01:27.339Z,3.03
2019-01-19T10:04:17.527Z,3.47
2019-01-19T10:07:07.650Z,2.67
2019-01-19T10:09:38.613Z,3.00
2019-01-19T10:18:33.450Z,3.10
2019-01-19T10:27:37.442Z,2.57
2019-01-19T10:30:45.676Z,2.87
2019-01-19T10:33:36.065Z,8.07
2019-01-19T10:39:16.139Z,3.60
2019-01-19T10:42:06.333Z,2.63
2019-01-19T10:44:56.371Z,2.90
2019-01-19T10:50:57.007Z,3.67
2019-01-19T10:53:47.248Z,2.80
2019-01-19T10:56:58.080Z,3.87
2019-01-19T10:59:48.169Z,2.50
2019-01-19T11:02:58.991Z,2.87
2019-01-19T11:06:08.253Z,2.67
2019-01-19T11:08:39.325Z,2.80
2019-01-19T11:11:29.387Z,3.07
2019-01-19T11:14:19.597Z,2.67
2019-01-19T11:17:09.821Z,3.03
2019-01-19T11:20:00.040Z,3.20
2019-01-19T11:22:50.258Z,3.37
2019-01-19T11:25:21.383Z,3.83
2019-01-19T11:28:11.536Z,3.77
2019-01-19T11:31:01.809Z,3.60
2019-01-19T11:33:32.705Z,3.83
2019-01-19T11:36:03.846Z,4.13
2019-01-19T11:38:34.878Z,3.93
2019-01-19T11:41:05.887Z,4.67
2019-01-19T11:43:36.901Z,4.70
2019-01-19T11:46:07.905Z,7.87
2019-01-19T11:51:47.844Z,3.87
2019-01-19T11:54:19.023Z,3.33
2019-01-19T11:57:09.187Z,3.13
2019-01-19T12:03:34.300Z,3.50
2019-01-19T12:06:05.362Z,3.40
2019-01-19T12:11:47.207Z,3.30
2019-01-19T12:14:37.731Z,3.00
2019-01-19T12:17:27.867Z,3.20
2019-01-19T12:19:58.840Z,3.57
2019-01-19T12:22:29.918Z,3.43
2019-01-19T12:25:40.801Z,3.73
2019-01-19T12:28:11.843Z,3.43
2019-01-19T12:31:02.079Z,3.40
2019-01-19T12:33:52.220Z,3.97
2019-01-19T12:36:23.262Z,3.93
2019-01-19T12:38:56.664Z,3.33
2019-01-19T12:41:27.715Z,3.10
2019-01-19T12:43:58.615Z,2.23
2019-01-19T12:46:29.556Z,1.90
2019-01-19T12:49:00.494Z,1.90
2019-01-19T12:51:31.500Z,2.13
2019-01-19T12:54:02.439Z,1.90
2019-01-19T12:56:33.543Z,1.83
2019-01-19T12:59:04.595Z,2.57
2019-01-19T13:01:35.819Z,1.90
2019-01-19T13:04:07.004Z,1.80
2019-01-19T13:07:17.854Z,10.87
2019-01-19T13:10:07.923Z,1.93
2019-01-19T13:12:58.157Z,5.40
2019-01-19T13:16:09.092Z,2.10
2019-01-19T13:19:19.888Z,1.57
2019-01-19T13:22:48.578Z,2.10
2019-01-19T13:25:59.387Z,1.67
2019-01-19T13:29:08.957Z,1.90
2019-01-19T13:32:18.576Z,1.77
2019-01-19T13:35:28.151Z,1.90
2019-01-19T13:38:42.049Z,1.83
2019-01-19T13:42:29.697Z,1.67
2019-01-19T13:45:39.249Z,2.40
2019-01-19T13:48:50.090Z,2.03
2019-01-19T13:52:21.008Z,2.03
2019-01-19T13:55:54.019Z,2.00
2019-01-19T13:59:22.573Z,1.83
2019-01-19T14:02:32.112Z,2.07
2019-01-19T14:05:41.598Z,2.27
2019-01-19T14:08:51.113Z,1.90
2019-01-19T14:12:00.653Z,3.37
2019-01-19T14:15:11.599Z,2.13
2019-01-19T14:18:22.497Z,2.27
2019-01-19T14:21:33.295Z,2.40
2019-01-19T14:24:42.850Z,1.93
2019-01-19T14:27:52.280Z,2.20
2019-01-19T14:31:03.450Z,1.77
2019-01-19T14:34:14.300Z,1.90
2019-01-19T14:37:25.108Z,2.13
2019-01-19T14:40:42.418Z,2.10
2019-01-19T14:43:52.105Z,2.33
2019-01-19T14:47:22.032Z,2.00
2019-01-19T14:50:32.033Z,2.30
2019-01-19T14:53:41.657Z,11.83
2019-01-19T14:56:51.210Z,2.47
2019-01-19T15:00:00.690Z,2.50
2019-01-19T15:03:11.570Z,6.83
2019-01-19T15:06:21.029Z,3.90
2019-01-19T15:09:30.523Z,3.57
2019-01-19T15:13:00.449Z,2.57
2019-01-19T15:16:11.250Z,2.30
2019-01-19T15:19:22.078Z,3.10
2019-01-19T15:22:31.935Z,2.10
2019-01-19T15:25:42.768Z,2.20
2019-01-19T15:28:52.225Z,2.47
2019-01-19T15:35:58.017Z,3.90
2019-01-19T15:39:11.030Z,2.27
2019-01-19T15:42:58.401Z,2.07
2019-01-19T15:46:09.254Z,2.17
2019-01-19T15:49:18.821Z,3.37
2019-01-19T15:52:28.306Z,5.10
2019-01-19T15:58:54.697Z,6.10
2019-01-19T16:02:05.551Z,5.87
2019-01-19T16:05:34.112Z,6.63
2019-01-19T16:08:44.965Z,5.10
2019-01-19T16:11:54.421Z,3.47
2019-01-19T16:15:03.902Z,3.60
2019-01-19T16:18:14.694Z,3.10
2019-01-19T16:21:24.361Z,2.90
2019-01-19T16:24:35.179Z,3.43
2019-01-19T16:27:45.972Z,3.80
2019-01-19T16:30:56.860Z,4.10
2019-01-19T16:34:07.693Z,3.43
2019-01-19T16:37:17.194Z,4.27
2019-01-19T16:40:26.739Z,6.53
2019-01-19T16:43:37.576Z,7.00
2019-01-19T16:56:48.700Z,4.77
2019-01-19T16:59:59.613Z,4.07
2019-01-19T17:03:11.817Z,5.93
2019-01-19T17:06:59.794Z,5.60
2019-01-19T17:10:09.326Z,5.93
2019-01-19T17:13:20.270Z,7.03
2019-01-19T17:16:29.745Z,7.53
2019-01-19T17:19:39.234Z,7.30
2019-01-19T17:22:48.740Z,7.93
2019-01-19T17:26:17.344Z,10.00
2019-01-19T17:29:28.198Z,11.37
2019-01-19T17:32:39.045Z,10.10
2019-01-19T17:35:48.556Z,8.70
2019-01-19T17:38:59.377Z,7.83
2019-01-19T17:42:08.905Z,7.53
2019-01-19T17:45:18.458Z,8.63
2019-01-19T17:48:27.979Z,8.43
2019-01-19T17:51:38.874Z,8.87
2019-01-19T17:54:48.416Z,8.17
2019-01-19T17:57:58.053Z,5.57
2019-01-19T18:01:07.775Z,5.77
2019-01-19T18:04:18.656Z,5.43
2019-01-19T18:07:28.170Z,6.03
2019-01-19T18:10:39.063Z,4.80
2019-01-19T18:13:49.895Z,5.23
2019-01-19T18:16:59.373Z,5.30
2019-01-19T18:20:08.892Z,4.87
2019-01-19T18:23:18.371Z,5.70
2019-01-19T18:26:27.885Z,5.47
2019-01-19T18:29:37.407Z,6.97
2019-01-19T18:32:48.293Z,8.40
2019-01-19T18:35:59.155Z,8.23
2019-01-19T18:39:10.071Z,7.13
2019-01-19T18:42:19.526Z,7.27
2019-01-19T18:45:29.033Z,7.40
2019-01-19T18:48:39.847Z,6.80
2019-01-19T18:51:50.681Z,6.33
2019-01-19T18:55:01.623Z,5.93
2019-01-19T18:58:11.232Z,5.13
2019-01-19T19:01:23.003Z,5.70
2019-01-19T19:04:33.830Z,5.47
2019-01-19T19:07:44.811Z,5.87
2019-01-19T19:10:54.450Z,5.27
2019-01-19T19:14:03.981Z,6.03
2019-01-19T19:17:14.821Z,5.97
2019-01-19T19:20:43.401Z,6.67
2019-01-19T19:23:54.369Z,6.83
2019-01-19T19:27:03.860Z,6.20
2019-01-19T19:30:13.362Z,6.77
2019-01-19T19:33:24.385Z,6.40
2019-01-19T19:36:35.688Z,6.80
2019-01-19T19:40:25.175Z,7.07
2019-01-19T19:43:36.039Z,7.30
2019-01-19T19:46:46.893Z,6.73
2019-01-19T19:49:56.914Z,7.27
2019-01-19T19:52:47.373Z,8.73
2019-01-19T20:02:06.759Z,6.63
2019-01-19T20:04:57.018Z,7.03
2019-01-19T20:21:23.245Z,7.00
2019-01-19T20:24:13.960Z,7.20
2019-01-19T20:26:45.089Z,8.53
2019-01-19T20:29:16.177Z,7.60
2019-01-19T20:34:56.454Z,8.60
2019-01-19T20:37:47.369Z,7.43
2019-01-19T20:40:37.544Z,8.40
2019-01-19T20:46:44.295Z,8.03
2019-01-19T20:49:55.659Z,7.03
2019-01-19T20:52:46.161Z,7.60
2019-01-19T20:59:31.313Z,6.83
2019-01-19T21:02:22.086Z,7.33
2019-01-19T21:08:23.189Z,8.20
2019-01-19T21:11:13.589Z,8.47
2019-01-19T21:14:23.542Z,8.10
2019-01-19T21:17:55.868Z,8.17
2019-01-19T21:21:04.665Z,7.43
2019-01-19T21:23:55.184Z,8.07
2019-01-19T21:26:26.258Z,9.57
2019-01-19T21:29:16.478Z,8.27
2019-01-19T21:32:06.532Z,8.20
2019-01-19T21:34:56.755Z,7.50
2019-01-19T21:37:47.169Z,8.10
2019-01-19T21:40:39.201Z,7.63
2019-01-19T21:47:23.684Z,6.70
2019-01-19T21:50:13.893Z,7.03
2019-01-19T21:52:44.857Z,8.07
2019-01-19T21:55:35.120Z,7.30
2019-01-19T21:58:25.160Z,6.90
2019-01-19T22:00:56.322Z,7.53
2019-01-19T22:03:46.375Z,7.73
2019-01-19T22:06:17.425Z,7.77
2019-01-19T22:08:48.305Z,7.93
2019-01-19T22:11:58.213Z,9.53
2019-01-19T22:14:48.408Z,12.70
2019-01-19T22:20:55.139Z,8.17
2019-01-19T22:23:45.315Z,13.70
2019-01-19T22:29:52.242Z,8.67
2019-01-19T22:32:42.749Z,7.60
2019-01-19T22:35:53.583Z,8.77
2019-01-19T22:38:43.772Z,17.87
2019-01-19T22:41:14.658Z,8.97
2019-01-19T22:44:44.556Z,11.27
2019-01-19T22:47:15.516Z,10.47
2019-01-19T22:50:05.560Z,10.77
2019-01-19T22:56:06.570Z,8.63
2019-01-19T22:58:56.761Z,8.13
2019-01-19T23:02:07.597Z,8.50
2019-01-19T23:04:57.699Z,8.73
2019-01-19T23:07:28.616Z,9.47
2019-01-19T23:09:59.516Z,9.20
2019-01-19T23:12:30.523Z,8.97
2019-01-19T23:17:42.073Z,7.90
2019-01-19T23:24:07.497Z,9.03
2019-01-19T23:30:08.461Z,9.00
2019-01-19T23:32:39.340Z,7.73
2019-01-19T23:35:29.583Z,8.47
2019-01-19T23:38:19.852Z,8.50
2019-01-19T23:41:10.038Z,8.17
2019-01-19T23:43:40.976Z,8.43
2019-01-19T23:46:12.118Z,8.10
2019-01-19T23:48:42.969Z,8.27
2019-01-19T23:51:53.665Z,8.73
2019-01-19T23:54:24.689Z,7.80
2019-01-19T23:56:55.628Z,8.63
2019-01-19T23:59:45.982Z,9.57
